Map

Track Data

SID SEASON NUMBER BASIN SUBBASIN NAME ISO_TIME NATURE LAT LON WMO_WIND WMO_PRES WMO_AGENCY TRACK_TYPE DIST2LAND LANDFALL IFLAG USA_AGENCY USA_ATCF_ID USA_LAT USA_LON USA_RECORD USA_STATUS USA_WIND USA_PRES USA_SSHS USA_R34_NE USA_R34_SE USA_R34_SW USA_R34_NW USA_R50_NE USA_R50_SE USA_R50_SW USA_R50_NW USA_R64_NE USA_R64_SE USA_R64_SW USA_R64_NW USA_POCI USA_ROCI USA_RMW USA_EYE TOKYO_LAT TOKYO_LON TOKYO_GRADE TOKYO_WIND TOKYO_PRES TOKYO_R50_DIR TOKYO_R50_LONG TOKYO_R50_SHORT TOKYO_R30_DIR TOKYO_R30_LONG TOKYO_R30_SHORT TOKYO_LAND CMA_LAT CMA_LON CMA_CAT CMA_WIND CMA_PRES HKO_LAT HKO_LON HKO_CAT HKO_WIND HKO_PRES NEWDELHI_LAT NEWDELHI_LON NEWDELHI_GRADE NEWDELHI_WIND NEWDELHI_PRES NEWDELHI_CI NEWDELHI_DP NEWDELHI_POCI REUNION_LAT REUNION_LON REUNION_TYPE REUNION_WIND REUNION_PRES REUNION_TNUM REUNION_CI REUNION_RMW REUNION_R34_NE REUNION_R34_SE REUNION_R34_SW REUNION_R34_NW REUNION_R50_NE REUNION_R50_SE REUNION_R50_SW REUNION_R50_NW REUNION_R64_NE REUNION_R64_SE REUNION_R64_SW REUNION_R64_NW BOM_LAT BOM_LON BOM_TYPE BOM_WIND BOM_PRES BOM_TNUM BOM_CI BOM_RMW BOM_R34_NE BOM_R34_SE BOM_R34_SW BOM_R34_NW BOM_R50_NE BOM_R50_SE BOM_R50_SW BOM_R50_NW BOM_R64_NE BOM_R64_SE BOM_R64_SW BOM_R64_NW BOM_ROCI BOM_POCI BOM_EYE BOM_POS_METHOD BOM_PRES_METHOD NADI_LAT NADI_LON NADI_CAT NADI_WIND NADI_PRES WELLINGTON_LAT WELLINGTON_LON WELLINGTON_WIND WELLINGTON_PRES DS824_LAT DS824_LON DS824_STAGE DS824_WIND DS824_PRES TD9636_LAT TD9636_LON TD9636_STAGE TD9636_WIND TD9636_PRES TD9635_LAT TD9635_LON TD9635_WIND TD9635_PRES TD9635_ROCI NEUMANN_LAT NEUMANN_LON NEUMANN_CLASS NEUMANN_WIND NEUMANN_PRES MLC_LAT MLC_LON MLC_CLASS MLC_WIND MLC_PRES USA_GUST BOM_GUST BOM_GUST_PER REUNION_GUST REUNION_GUST_PER USA_SEAHGT USA_SEARAD_NE USA_SEARAD_SE USA_SEARAD_SW USA_SEARAD_NW STORM_SPEED STORM_DIR
2014231N21117 2014 57 WP MM NOT_NAMED 2014-08-18 12:00:00 TS 20.9000 117.200 main 234 151 __O___________ -1 20.9000 117.200 1 29 1006 15 339
2014231N21117 2014 57 WP MM NOT_NAMED 2014-08-18 15:00:00 TS 21.6073 116.905 main 151 78 __P___________ -1 21.6073 116.905 1 29 1006 14 349
2014231N21117 2014 57 WP MM NOT_NAMED 2014-08-18 18:00:00 TS 22.3000 116.900 main 78 61 __O___________ -1 22.3000 116.900 1 29 1006 14 16
2014231N21117 2014 57 WP MM NOT_NAMED 2014-08-18 21:00:00 TS 22.9782 117.340 main 59 20 __P___________ -1 22.9782 117.340 1 29 1005 16 31
2014231N21117 2014 57 WP MM NOT_NAMED 2014-08-19 00:00:00 TS 23.7000 117.800 main 20 0 __O___________ -1 23.7000 117.800 1 29 1004 16 12
2014231N21117 2014 57 WP MM NOT_NAMED 2014-08-19 03:00:00 TS 24.5648 117.718 main 0 0 __P___________ -1 24.5648 117.718 1 29 1004 17 354
2014231N21117 2014 57 WP MM NOT_NAMED 2014-08-19 06:00:00 TS 25.4000 117.600 main 0 0 __O___________ -1 25.4000 117.600 1 29 1004 15 3
2014231N21117 2014 57 WP MM NOT_NAMED 2014-08-19 09:00:00 TS 26.0367 117.801 main 0 0 __P___________ -1 26.0367 117.801 1 27 1004 14 28
2014231N21117 2014 57 WP MM NOT_NAMED 2014-08-19 12:00:00 TS 26.6000 118.300 main 0 0 __O___________ -1 26.6000 118.300 1 25 1004 17 47
2014231N21117 2014 57 WP MM NOT_NAMED 2014-08-19 15:00:00 TS 27.1714 119.155 main 0 0 __P___________ -1 27.1714 119.155 1 25 1005 20 53
2014231N21117 2014 57 WP MM NOT_NAMED 2014-08-19 18:00:00 TS 27.8000 120.100 main 0 0 __O___________ -1 27.8000 120.100 1 25 1006 21 46
2014231N21117 2014 57 WP MM NOT_NAMED 2014-08-19 21:00:00 TS 28.5846 120.832 main 0 0 __P___________ -1 28.5846 120.832 1 25 1006 20 35
2014231N21117 2014 57 WP MM NOT_NAMED 2014-08-20 00:00:00 TS 29.4000 121.400 main 0 0 __O___________ -1 29.4000 121.400 1 25 1006 17 28
2014231N21117 2014 57 WP MM NOT_NAMED 2014-08-20 03:00:00 TS 30.0610 121.717 main 14 14 __P___________ -1 30.0610 121.717 1 25 1005 15 23
2014231N21117 2014 57 WP MM NOT_NAMED 2014-08-20 06:00:00 TS 30.8000 122.100 main 22 22 __O___________ -1 30.8000 122.100 1 25 1004 20 30
2014231N21117 2014 57 WP MM NOT_NAMED 2014-08-20 09:00:00 TS 31.7977 122.887 main 95 95 __P___________ -1 31.7977 122.887 1 25 1004 26 36
2014231N21117 2014 57 WP MM NOT_NAMED 2014-08-20 12:00:00 TS 32.9000 123.900 main 218 145 __O___________ -1 32.9000 123.900 1 25 1004 27 37
2014231N21117 2014 57 WP MM NOT_NAMED 2014-08-20 15:00:00 TS 33.9761 124.862 main 140 27 __P___________ -1 33.9761 124.862 1 25 1005 28 41
2014231N21117 2014 57 WP MM NOT_NAMED 2014-08-20 18:00:00 TS 35.0000 126.100 main 14 0 __O___________ -1 35.0000 126.100 1 25 1006 31 51
2014231N21117 2014 57 WP MM NOT_NAMED 2014-08-20 21:00:00 TS 35.8991 127.801 main 0 0 __P___________ -1 35.8991 127.801 1 25 1006 34 60
2014231N21117 2014 57 WP MM NOT_NAMED 2014-08-21 00:00:00 TS 36.7000 129.800 main 26 __O___________ -1 36.7000 129.800 1 25 1006 36 63

Digital Typhoon Data and Search

About IBTrACS Database

This database is a web-friendly format of International Best Track Archive for Climate Stewardship (IBTrACS), a global best track data archive curated by NOAA dating back to 1842.

Updated: 2021-11-26